Map

Track Data

SID SEASON NUMBER BASIN SUBBASIN NAME ISO_TIME NATURE LAT LON WMO_WIND WMO_PRES WMO_AGENCY TRACK_TYPE DIST2LAND LANDFALL IFLAG USA_AGENCY USA_ATCF_ID USA_LAT USA_LON USA_RECORD USA_STATUS USA_WIND USA_PRES USA_SSHS USA_R34_NE USA_R34_SE USA_R34_SW USA_R34_NW USA_R50_NE USA_R50_SE USA_R50_SW USA_R50_NW USA_R64_NE USA_R64_SE USA_R64_SW USA_R64_NW USA_POCI USA_ROCI USA_RMW USA_EYE TOKYO_LAT TOKYO_LON TOKYO_GRADE TOKYO_WIND TOKYO_PRES TOKYO_R50_DIR TOKYO_R50_LONG TOKYO_R50_SHORT TOKYO_R30_DIR TOKYO_R30_LONG TOKYO_R30_SHORT TOKYO_LAND CMA_LAT CMA_LON CMA_CAT CMA_WIND CMA_PRES HKO_LAT HKO_LON HKO_CAT HKO_WIND HKO_PRES NEWDELHI_LAT NEWDELHI_LON NEWDELHI_GRADE NEWDELHI_WIND NEWDELHI_PRES NEWDELHI_CI NEWDELHI_DP NEWDELHI_POCI REUNION_LAT REUNION_LON REUNION_TYPE REUNION_WIND REUNION_PRES REUNION_TNUM REUNION_CI REUNION_RMW REUNION_R34_NE REUNION_R34_SE REUNION_R34_SW REUNION_R34_NW REUNION_R50_NE REUNION_R50_SE REUNION_R50_SW REUNION_R50_NW REUNION_R64_NE REUNION_R64_SE REUNION_R64_SW REUNION_R64_NW BOM_LAT BOM_LON BOM_TYPE BOM_WIND BOM_PRES BOM_TNUM BOM_CI BOM_RMW BOM_R34_NE BOM_R34_SE BOM_R34_SW BOM_R34_NW BOM_R50_NE BOM_R50_SE BOM_R50_SW BOM_R50_NW BOM_R64_NE BOM_R64_SE BOM_R64_SW BOM_R64_NW BOM_ROCI BOM_POCI BOM_EYE BOM_POS_METHOD BOM_PRES_METHOD NADI_LAT NADI_LON NADI_CAT NADI_WIND NADI_PRES WELLINGTON_LAT WELLINGTON_LON WELLINGTON_WIND WELLINGTON_PRES DS824_LAT DS824_LON DS824_STAGE DS824_WIND DS824_PRES TD9636_LAT TD9636_LON TD9636_STAGE TD9636_WIND TD9636_PRES TD9635_LAT TD9635_LON TD9635_WIND TD9635_PRES TD9635_ROCI NEUMANN_LAT NEUMANN_LON NEUMANN_CLASS NEUMANN_WIND NEUMANN_PRES MLC_LAT MLC_LON MLC_CLASS MLC_WIND MLC_PRES USA_GUST BOM_GUST BOM_GUST_PER REUNION_GUST REUNION_GUST_PER USA_SEAHGT USA_SEARAD_NE USA_SEARAD_SE USA_SEARAD_SW USA_SEARAD_NW STORM_SPEED STORM_DIR
1968273N14089 1968 99 NI BB NOT_NAMED 1968-09-28 18:00:00 TS 13.9000 88.8000 main 626 626 O________O____ jtwc_io IO081968 13.9000 88.8000 -1 13.9000 88.8000 TC 5 305
1968273N14089 1968 99 NI BB NOT_NAMED 1968-09-28 21:00:00 TS 14.0576 88.5701 main 638 638 P________P____ IO081968 14.0576 88.5701 -1 14.0576 88.5701 TC 5 308
1968273N14089 1968 99 NI BB NOT_NAMED 1968-09-29 00:00:00 TS 14.2000 88.4000 main 649 633 O________O____ jtwc_io IO081968 14.2000 88.4000 -1 14.2000 88.4000 TC 25 4 317
1968273N14089 1968 99 NI BB NOT_NAMED 1968-09-29 03:00:00 TS 14.3133 88.3244 main 633 625 P________PO___ IO081968 14.3150 88.3275 -1 14.3150 88.3275 TC 25 14.3000 88.3000 1 2 334
1968273N14089 1968 99 NI BB NOT_NAMED 1968-09-29 06:00:00 TS 14.3978 88.2966 main 625 617 O________OP___ jtwc_io IO081968 14.4000 88.3000 -1 14.4000 88.3000 TC 25 14.3891 88.2829 1 2 334
1968273N14089 1968 99 NI BB NOT_NAMED 1968-09-29 09:00:00 TS 14.4561 88.2534 main 617 610 P________PP___ IO081968 14.4500 88.2500 -1 14.4500 88.2500 TC 25 14.4725 88.2626 1 1 325
1968273N14089 1968 99 NI BB NOT_NAMED 1968-09-29 12:00:00 TS 14.5149 88.2120 main 610 602 O________OP___ jtwc_io IO081968 14.5000 88.2000 -1 14.5000 88.2000 TC 25 14.5447 88.2360 1 2 329
1968273N14089 1968 99 NI BB NOT_NAMED 1968-09-29 15:00:00 TS 14.6000 88.1667 main 602 586 P________PO___ IO081968 14.6000 88.1500 -1 14.6000 88.1500 TC 25 14.6000 88.2000 1 2 332
1968273N14089 1968 99 NI BB NOT_NAMED 1968-09-29 18:00:00 TS 14.6795 88.1171 main 586 586 O________OP___ jtwc_io IO081968 14.7000 88.1000 -1 14.7000 88.1000 TC 25 14.6384 88.1514 1 2 321
1968273N14089 1968 99 NI BB NOT_NAMED 1968-09-29 21:00:00 TS 14.7225 88.0674 main 586 571 P________PP___ IO081968 14.7425 88.0575 -1 14.7425 88.0575 TC 25 14.6825 88.0872 1 2 314
1968273N14089 1968 99 NI BB NOT_NAMED 1968-09-30 00:00:00 TS 14.7868 88.0015 main 571 555 O________OP___ jtwc_io IO081968 14.8000 88.0000 -1 14.8000 88.0000 TC 25 14.7603 88.0044 1 2 320
1968273N14089 1968 99 NI BB NOT_NAMED 1968-09-30 03:00:00 TS 14.9033 87.9100 main 555 532 P________PO___ IO081968 14.9050 87.9149 -1 14.9050 87.9149 TC 25 14.9000 87.9000 1 4 328
1968273N14089 1968 99 NI BB NOT_NAMED 1968-09-30 06:00:00 TS 15.1172 87.7879 main 532 493 O________OP___ jtwc_io IO081968 15.1000 87.8000 -1 15.1000 87.8000 TC 25 15.1516 87.7637 1 6 334
1968273N14089 1968 99 NI BB NOT_NAMED 1968-09-30 09:00:00 TS 15.4442 87.6410 main 493 454 P________PP___ IO081968 15.4350 87.6576 -1 15.4350 87.6576 TC 25 15.4626 87.6079 1 7 337
1968273N14089 1968 99 NI BB NOT_NAMED 1968-09-30 12:00:00 TS 15.7974 87.4827 main 454 415 O________OP___ jtwc_io IO081968 15.8000 87.5000 -1 15.8000 87.5000 TC 25 15.7923 87.4481 1 7 335
1968273N14089 1968 99 NI BB NOT_NAMED 1968-09-30 15:00:00 TS 16.0817 87.3283 main 415 392 P________PO___ IO081968 16.0725 87.3425 -1 16.0725 87.3425 TC 25 16.1000 87.3000 1 6 333
1968273N14089 1968 99 NI BB NOT_NAMED 1968-09-30 18:00:00 TS 16.3040 87.2112 main 392 369 O________OP___ jtwc_io IO081968 16.3000 87.2000 -1 16.3000 87.2000 TC 25 16.3121 87.2336 1 5 335
1968273N14089 1968 99 NI BB NOT_NAMED 1968-09-30 21:00:00 TS 16.4998 87.1295 main 369 346 P________PP___ IO081968 16.5000 87.1074 -1 16.5000 87.1074 TC 30 16.4994 87.1738 1 4 336
1968273N14089 1968 99 NI BB NOT_NAMED 1968-10-01 00:00:00 TS 16.6957 87.0257 main 346 323 O________OP___ jtwc_io IO081968 16.7000 87.0000 -1 16.7000 87.0000 TC 35 16.6870 87.0772 1 5 330
1968273N14089 1968 99 NI BB NOT_NAMED 1968-10-01 03:00:00 TS 16.9232 86.8732 main 323 277 P________PO___ IO081968 16.9348 86.8598 -1 16.9348 86.8598 TC 35 16.9000 86.9000 2 7 320
1968273N14089 1968 99 NI BB NOT_NAMED 1968-10-01 06:00:00 TS 17.2015 86.5836 main 277 215 O________OP___ jtwc_io IO081968 17.2000 86.6000 -1 17.2000 86.6000 TC 35 17.2045 86.5509 2 9 309
1968273N14089 1968 99 NI BB NOT_NAMED 1968-10-01 09:00:00 TS 17.5106 86.1133 main 215 161 P________PP___ IO081968 17.5004 86.1078 -1 17.5004 86.1078 TC 50 17.5312 86.1242 2 11 304
1968273N14089 1968 99 NI BB NOT_NAMED 1968-10-01 12:00:00 TS 17.8140 85.6284 main 153 107 O________OP___ jtwc_io IO081968 17.8000 85.6000 -1 17.8000 85.6000 TC 65 17.8421 85.6852 2 10 307
1968273N14089 1968 99 NI BB NOT_NAMED 1968-10-01 15:00:00 TS 18.0915 85.2983 main 107 76 P________PO___ IO081968 18.0873 85.2974 -1 18.0873 85.2974 TC 65 18.1000 85.3000 4 7 312
1968273N14089 1968 99 NI BB NOT_NAMED 1968-10-01 18:00:00 TS 18.2775 85.0905 main 76 61 O________OP___ jtwc_io IO081968 18.3000 85.1000 -1 18.3000 85.1000 TC 65 18.2325 85.0714 4 4 307
1968273N14089 1968 99 NI BB NOT_NAMED 1968-10-01 21:00:00 TS 18.3480 84.9344 main 61 46 P________PP___ IO081968 18.3649 84.9498 -1 18.3649 84.9498 TC 65 18.3142 84.9036 4 3 292
1968273N14089 1968 99 NI BB NOT_NAMED 1968-10-02 00:00:00 TS 18.3963 84.7864 main 46 23 O________OP___ jtwc_io IO081968 18.4000 84.8000 -1 18.4000 84.8000 TC 65 18.3889 84.7591 4 4 295
1968273N14089 1968 99 NI BB NOT_NAMED 1968-10-02 03:00:00 TS 18.5083 84.5766 main 23 0 P________PO___ IO081968 18.5125 84.5649 -1 18.5125 84.5649 TC 50 18.5000 84.6000 4 5 305
1968273N14089 1968 99 NI BB NOT_NAMED 1968-10-02 06:00:00 TS 18.7092 84.3119 main 0 0 O________OP___ jtwc_io IO081968 18.7000 84.3000 -1 18.7000 84.3000 TC 35 18.7275 84.3357 4 7 314
1968273N14089 1968 99 NI BB NOT_NAMED 1968-10-02 09:00:00 TS 18.9977 84.0421 main 0 0 P________PP___ IO081968 19.0000 84.0352 -1 19.0000 84.0352 TC 35 18.9929 84.0560 4 8 320
1968273N14089 1968 99 NI BB NOT_NAMED 1968-10-02 12:00:00 TS 19.2873 83.7994 main 0 0 O________OP___ jtwc_io IO081968 19.3000 83.8000 -1 19.3000 83.8000 TC 35 19.2618 83.7982 4 6 320
1968273N14089 1968 99 NI BB NOT_NAMED 1968-10-02 15:00:00 TS 19.4916 83.6083 main 0 0 P________PO___ IO081968 19.4875 83.6124 -1 19.4875 83.6124 TC 35 19.5000 83.6000 3 4 317
1968273N14089 1968 99 NI BB NOT_NAMED 1968-10-02 18:00:00 TS 19.5959 83.5006 main 0 0 O________OP___ jtwc_io IO081968 19.6000 83.5000 -1 19.6000 83.5000 TC 35 19.5876 83.5018 3 2 318
1968273N14089 1968 99 NI BB NOT_NAMED 1968-10-02 21:00:00 TS 19.6258 83.4740 main 0 0 P________PP___ IO081968 19.6125 83.4775 -1 19.6125 83.4775 TC 30 19.6523 83.4671 3 1 0
1968273N14089 1968 99 NI BB NOT_NAMED 1968-10-03 00:00:00 TS 19.7219 83.4913 main 0 0 O________OP___ jtwc_io IO081968 19.7000 83.5000 -1 19.7000 83.5000 TC 25 19.7658 83.4739 3 4 0
1968273N14089 1968 99 NI BB NOT_NAMED 1968-10-03 03:00:00 TS 20.0117 83.5000 main 0 0 P________PO___ IO081968 20.0175 83.5000 -1 20.0175 83.5000 TC 25 20.0000 83.5000 1 8 0
1968273N14089 1968 99 NI BB NOT_NAMED 1968-10-03 06:00:00 TS 20.4832 83.4956 main 0 0 O________OP___ jtwc_io IO081968 20.5000 83.5000 -1 20.5000 83.5000 TC 25 20.4497 83.4868 1 10 0
1968273N14089 1968 99 NI BB NOT_NAMED 1968-10-03 09:00:00 TS 21.0542 83.4871 main 0 0 P________PP___ IO081968 21.0700 83.4852 -1 21.0700 83.4852 TC 25 21.0225 83.4909 1 12 1
1968273N14089 1968 99 NI BB NOT_NAMED 1968-10-03 12:00:00 TS 21.6864 83.5082 main 0 0 O________OP___ jtwc_io IO081968 21.7000 83.5000 -1 21.7000 83.5000 TC 25 21.6591 83.5245 1 13 4
1968273N14089 1968 99 NI BB NOT_NAMED 1968-10-03 15:00:00 TS 22.3050 83.5800 main 0 0 P________PO___ IO081968 22.3075 83.5701 -1 22.3075 83.5701 TC 25 22.3000 83.6000 1 12 9
1968273N14089 1968 99 NI BB NOT_NAMED 1968-10-03 18:00:00 TS 22.9007 83.7143 main 0 0 O________OP___ jtwc_io IO081968 22.9000 83.7000 -1 22.9000 83.7000 TC 25 22.9020 83.7429 1 12 14
1968273N14089 1968 99 NI BB NOT_NAMED 1968-10-03 21:00:00 TS 23.4784 83.9035 main 0 0 P________PP___ IO081968 23.4725 83.8923 -1 23.4725 83.8923 TC 25 23.4902 83.9259 1 12 18
1968273N14089 1968 99 NI BB NOT_NAMED 1968-10-04 00:00:00 TS 24.0111 84.1070 main 0 0 O________OP___ jtwc_io IO081968 24.0000 84.1000 -1 24.0000 84.1000 TC 25 24.0333 84.1211 1 11 18
1968273N14089 1968 99 NI BB NOT_NAMED 1968-10-04 03:00:00 TS 24.4966 84.2767 main 0 0 P________PO___ IO081968 24.4950 84.2651 -1 24.4950 84.2651 TC 25 24.5000 84.3000 1 9 18
1968273N14089 1968 99 NI BB NOT_NAMED 1968-10-04 06:00:00 TS 24.8876 84.4161 main 0 0 O________OP___ jtwc_io IO081968 24.9000 84.4000 -1 24.9000 84.4000 TC 25 24.8689 84.4402 1 7 18
1968273N14089 1968 99 NI BB NOT_NAMED 1968-10-04 09:00:00 TS 25.1731 84.5240 main 0 0 P________PP___ IO081968 25.1850 84.5075 -1 25.1850 84.5075 TC 25 25.1573 84.5460 1 5 20
1968273N14089 1968 99 NI BB NOT_NAMED 1968-10-04 12:00:00 TS 25.3960 84.6144 main 0 0 O________OP___ jtwc_io IO081968 25.4000 84.6000 -1 25.4000 84.6000 TC 25 25.3921 84.6287 1 5 20
1968273N14089 1968 99 NI BB NOT_NAMED 1968-10-04 15:00:00 NR 25.6000 84.7000 main 0 __________O___ IO081968 -1 TC 25.6000 84.7000 1 4 22

About IBTrACS Database

This database is a web-friendly format of International Best Track Archive for Climate Stewardship (IBTrACS), a global best track data archive curated by NOAA dating back to 1842.

Updated: 2021-10-08